sensor_id;sensor_type;location;lat;lon;timestamp;temperature;humidity
19252;DHT22;9760;50.944;5.304;2022-09-27T00:01:37;9.90;99.90
19252;DHT22;9760;50.944;5.304;2022-09-27T00:04:03;9.90;99.90
19252;DHT22;9760;50.944;5.304;2022-09-27T00:06:30;9.90;99.90
19252;DHT22;9760;50.944;5.304;2022-09-27T00:08:57;9.90;99.90
19252;DHT22;9760;50.944;5.304;2022-09-27T00:11:27;9.90;99.90
19252;DHT22;9760;50.944;5.304;2022-09-27T00:13:54;9.90;99.90
19252;DHT22;9760;50.944;5.304;2022-09-27T00:16:25;9.90;99.90
19252;DHT22;9760;50.944;5.304;2022-09-27T00:18:51;9.90;99.90
19252;DHT22;9760;50.944;5.304;2022-09-27T00:21:17;9.90;99.90
19252;DHT22;9760;50.944;5.304;2022-09-27T00:23:43;9.90;99.90
19252;DHT22;9760;50.944;5.304;2022-09-27T00:26:11;9.90;99.90
19252;DHT22;9760;50.944;5.304;2022-09-27T00:28:37;9.80;99.90
19252;DHT22;9760;50.944;5.304;2022-09-27T00:31:03;9.80;99.90
19252;DHT22;9760;50.944;5.304;2022-09-27T00:33:29;9.80;99.90
19252;DHT22;9760;50.944;5.304;2022-09-27T00:36:01;9.80;99.90
19252;DHT22;9760;50.944;5.304;2022-09-27T00:38:27;9.80;99.90
19252;DHT22;9760;50.944;5.304;2022-09-27T00:40:53;9.80;99.90
19252;DHT22;9760;50.944;5.304;2022-09-27T00:43:21;9.80;99.90
19252;DHT22;9760;50.944;5.304;2022-09-27T00:46:01;9.80;99.90
19252;DHT22;9760;50.944;5.304;2022-09-27T00:48:30;9.80;99.90
19252;DHT22;9760;50.944;5.304;2022-09-27T00:50:59;9.80;99.90
19252;DHT22;9760;50.944;5.304;2022-09-27T00:53:40;9.80;99.90
19252;DHT22;9760;50.944;5.304;2022-09-27T00:56:13;9.80;99.90
19252;DHT22;9760;50.944;5.304;2022-09-27T00:58:47;9.80;99.90
19252;DHT22;9760;50.944;5.304;2022-09-27T01:01:15;9.80;99.90
19252;DHT22;9760;50.944;5.304;2022-09-27T01:04:15;9.80;99.90
19252;DHT22;9760;50.944;5.304;2022-09-27T01:06:41;9.70;99.90
19252;DHT22;9760;50.944;5.304;2022-09-27T01:09:07;9.70;99.90
19252;DHT22;9760;50.944;5.304;2022-09-27T01:14:37;9.60;99.90
19252;DHT22;9760;50.944;5.304;2022-09-27T01:20:22;9.60;99.90
19252;DHT22;9760;50.944;5.304;2022-09-27T01:23:10;9.60;99.90
19252;DHT22;9760;50.944;5.304;2022-09-27T01:31:18;9.60;99.90
19252;DHT22;9760;50.944;5.304;2022-09-27T01:34:00;9.70;99.90
19252;DHT22;9760;50.944;5.304;2022-09-27T01:36:30;9.70;99.90
19252;DHT22;9760;50.944;5.304;2022-09-27T01:39:10;9.60;99.90
19252;DHT22;9760;50.944;5.304;2022-09-27T01:44:53;9.60;99.90
19252;DHT22;9760;50.944;5.304;2022-09-27T01:47:20;9.50;99.90
19252;DHT22;9760;50.944;5.304;2022-09-27T01:52:40;9.50;99.90
19252;DHT22;9760;50.944;5.304;2022-09-27T01:55:09;9.50;99.90
19252;DHT22;9760;50.944;5.304;2022-09-27T01:57:39;9.50;99.90
19252;DHT22;9760;50.944;5.304;2022-09-27T02:00:10;9.40;99.90
19252;DHT22;9760;50.944;5.304;2022-09-27T02:02:40;9.40;99.90
19252;DHT22;9760;50.944;5.304;2022-09-27T02:05:10;9.40;99.90
19252;DHT22;9760;50.944;5.304;2022-09-27T02:07:47;9.40;99.90
19252;DHT22;9760;50.944;5.304;2022-09-27T02:10:22;9.40;99.90
19252;DHT22;9760;50.944;5.304;2022-09-27T02:12:54;9.40;99.90
19252;DHT22;9760;50.944;5.304;2022-09-27T02:15:23;9.40;99.90
19252;DHT22;9760;50.944;5.304;2022-09-27T02:20:24;9.50;99.90
19252;DHT22;9760;50.944;5.304;2022-09-27T02:23:02;9.50;99.90
19252;DHT22;9760;50.944;5.304;2022-09-27T02:30:34;9.50;99.90
19252;DHT22;9760;50.944;5.304;2022-09-27T02:33:00;9.50;99.90
19252;DHT22;9760;50.944;5.304;2022-09-27T02:35:31;9.50;99.90
19252;DHT22;9760;50.944;5.304;2022-09-27T02:37:57;9.50;99.90
19252;DHT22;9760;50.944;5.304;2022-09-27T02:40:25;9.40;99.90
19252;DHT22;9760;50.944;5.304;2022-09-27T02:42:54;9.40;99.90
19252;DHT22;9760;50.944;5.304;2022-09-27T02:45:20;9.50;99.90
19252;DHT22;9760;50.944;5.304;2022-09-27T02:47:58;9.50;99.90
19252;DHT22;9760;50.944;5.304;2022-09-27T02:50:53;9.40;99.90
19252;DHT22;9760;50.944;5.304;2022-09-27T02:53:30;9.40;99.90
19252;DHT22;9760;50.944;5.304;2022-09-27T02:56:09;9.40;99.90
19252;DHT22;9760;50.944;5.304;2022-09-27T02:58:59;9.40;99.90
19252;DHT22;9760;50.944;5.304;2022-09-27T03:04:36;9.40;99.90
19252;DHT22;9760;50.944;5.304;2022-09-27T03:07:04;9.40;99.90
19252;DHT22;9760;50.944;5.304;2022-09-27T03:09:41;9.40;99.90
19252;DHT22;9760;50.944;5.304;2022-09-27T03:12:08;9.30;99.90
19252;DHT22;9760;50.944;5.304;2022-09-27T03:14:34;9.30;99.90
19252;DHT22;9760;50.944;5.304;2022-09-27T03:16:59;9.30;99.90
19252;DHT22;9760;50.944;5.304;2022-09-27T03:19:25;9.30;99.90
19252;DHT22;9760;50.944;5.304;2022-09-27T03:21:51;9.30;99.90
19252;DHT22;9760;50.944;5.304;2022-09-27T03:24:16;9.30;99.90
19252;DHT22;9760;50.944;5.304;2022-09-27T03:26:42;9.30;99.90
19252;DHT22;9760;50.944;5.304;2022-09-27T03:29:08;9.30;99.90
19252;DHT22;9760;50.944;5.304;2022-09-27T03:31:33;9.30;99.90
19252;DHT22;9760;50.944;5.304;2022-09-27T03:33:59;9.30;99.90
19252;DHT22;9760;50.944;5.304;2022-09-27T03:36:24;9.30;99.90
19252;DHT22;9760;50.944;5.304;2022-09-27T03:38:50;9.30;99.90
19252;DHT22;9760;50.944;5.304;2022-09-27T03:41:16;9.30;99.90
19252;DHT22;9760;50.944;5.304;2022-09-27T03:43:41;9.30;99.90
19252;DHT22;9760;50.944;5.304;2022-09-27T03:46:07;9.30;99.90
19252;DHT22;9760;50.944;5.304;2022-09-27T03:48:32;9.30;99.90
19252;DHT22;9760;50.944;5.304;2022-09-27T03:50:58;9.20;99.90
19252;DHT22;9760;50.944;5.304;2022-09-27T03:53:24;9.20;99.90
19252;DHT22;9760;50.944;5.304;2022-09-27T03:55:49;9.20;99.90
19252;DHT22;9760;50.944;5.304;2022-09-27T03:58:15;9.20;99.90
19252;DHT22;9760;50.944;5.304;2022-09-27T04:00:41;9.20;99.90
19252;DHT22;9760;50.944;5.304;2022-09-27T04:03:08;9.20;99.90
19252;DHT22;9760;50.944;5.304;2022-09-27T04:05:35;9.20;99.90
19252;DHT22;9760;50.944;5.304;2022-09-27T04:08:01;9.20;99.90
19252;DHT22;9760;50.944;5.304;2022-09-27T04:10:26;9.20;99.90
19252;DHT22;9760;50.944;5.304;2022-09-27T04:12:52;9.20;99.90
19252;DHT22;9760;50.944;5.304;2022-09-27T04:15:18;9.20;99.90
19252;DHT22;9760;50.944;5.304;2022-09-27T04:17:44;9.10;99.90
19252;DHT22;9760;50.944;5.304;2022-09-27T04:20:10;9.10;99.90
19252;DHT22;9760;50.944;5.304;2022-09-27T04:22:39;9.00;99.90
19252;DHT22;9760;50.944;5.304;2022-09-27T04:25:07;9.00;99.90
19252;DHT22;9760;50.944;5.304;2022-09-27T04:27:34;9.00;99.90
19252;DHT22;9760;50.944;5.304;2022-09-27T04:29:59;9.00;99.90
19252;DHT22;9760;50.944;5.304;2022-09-27T04:32:25;9.00;99.90
19252;DHT22;9760;50.944;5.304;2022-09-27T04:34:51;8.90;99.90
19252;DHT22;9760;50.944;5.304;2022-09-27T04:37:34;8.90;99.90
19252;DHT22;9760;50.944;5.304;2022-09-27T04:40:02;9.00;99.90
19252;DHT22;9760;50.944;5.304;2022-09-27T04:42:28;8.90;99.90
19252;DHT22;9760;50.944;5.304;2022-09-27T04:44:54;8.90;99.90
19252;DHT22;9760;50.944;5.304;2022-09-27T04:47:19;8.90;99.90
19252;DHT22;9760;50.944;5.304;2022-09-27T04:49:46;8.90;99.90
19252;DHT22;9760;50.944;5.304;2022-09-27T04:52:12;8.90;99.90
19252;DHT22;9760;50.944;5.304;2022-09-27T04:54:41;8.90;99.90
19252;DHT22;9760;50.944;5.304;2022-09-27T04:57:07;8.80;99.90
19252;DHT22;9760;50.944;5.304;2022-09-27T04:59:33;8.90;99.90
19252;DHT22;9760;50.944;5.304;2022-09-27T05:01:58;8.80;99.90
19252;DHT22;9760;50.944;5.304;2022-09-27T05:04:25;8.80;99.90
19252;DHT22;9760;50.944;5.304;2022-09-27T05:06:51;8.80;99.90
19252;DHT22;9760;50.944;5.304;2022-09-27T05:09:17;8.90;99.90
19252;DHT22;9760;50.944;5.304;2022-09-27T05:11:43;8.80;99.90
19252;DHT22;9760;50.944;5.304;2022-09-27T05:14:08;8.90;99.90
19252;DHT22;9760;50.944;5.304;2022-09-27T05:16:34;8.90;99.90
19252;DHT22;9760;50.944;5.304;2022-09-27T05:19:01;8.90;99.90
19252;DHT22;9760;50.944;5.304;2022-09-27T05:21:27;8.80;99.90
19252;DHT22;9760;50.944;5.304;2022-09-27T05:23:53;8.80;99.90
19252;DHT22;9760;50.944;5.304;2022-09-27T05:26:19;8.80;99.90
19252;DHT22;9760;50.944;5.304;2022-09-27T05:28:45;8.80;99.90
19252;DHT22;9760;50.944;5.304;2022-09-27T05:31:12;8.90;99.90
19252;DHT22;9760;50.944;5.304;2022-09-27T05:33:39;8.90;99.90
19252;DHT22;9760;50.944;5.304;2022-09-27T05:36:06;8.90;99.90
19252;DHT22;9760;50.944;5.304;2022-09-27T05:38:32;8.90;99.90
19252;DHT22;9760;50.944;5.304;2022-09-27T05:40:59;8.90;99.90
19252;DHT22;9760;50.944;5.304;2022-09-27T05:43:25;8.90;99.90
19252;DHT22;9760;50.944;5.304;2022-09-27T05:45:52;8.90;99.90
19252;DHT22;9760;50.944;5.304;2022-09-27T05:48:18;8.90;99.90
19252;DHT22;9760;50.944;5.304;2022-09-27T05:50:44;8.90;99.90
19252;DHT22;9760;50.944;5.304;2022-09-27T05:53:10;8.90;99.90
19252;DHT22;9760;50.944;5.304;2022-09-27T05:55:36;8.90;99.90
19252;DHT22;9760;50.944;5.304;2022-09-27T05:58:06;8.90;99.90
19252;DHT22;9760;50.944;5.304;2022-09-27T06:00:33;8.90;99.90
19252;DHT22;9760;50.944;5.304;2022-09-27T06:03:04;8.90;99.90
19252;DHT22;9760;50.944;5.304;2022-09-27T06:05:34;8.90;99.90
19252;DHT22;9760;50.944;5.304;2022-09-27T06:08:03;8.90;99.90
19252;DHT22;9760;50.944;5.304;2022-09-27T06:10:30;9.00;99.90
19252;DHT22;9760;50.944;5.304;2022-09-27T06:13:01;9.00;99.90
19252;DHT22;9760;50.944;5.304;2022-09-27T06:15:27;8.90;99.90
19252;DHT22;9760;50.944;5.304;2022-09-27T06:17:54;9.00;99.90
19252;DHT22;9760;50.944;5.304;2022-09-27T06:20:20;9.00;99.90
19252;DHT22;9760;50.944;5.304;2022-09-27T06:22:46;9.00;99.90
19252;DHT22;9760;50.944;5.304;2022-09-27T06:25:12;9.10;99.90
19252;DHT22;9760;50.944;5.304;2022-09-27T06:27:38;9.10;99.90
19252;DHT22;9760;50.944;5.304;2022-09-27T06:30:04;9.20;99.90
19252;DHT22;9760;50.944;5.304;2022-09-27T06:32:30;9.20;99.90
19252;DHT22;9760;50.944;5.304;2022-09-27T06:34:57;9.20;99.90
19252;DHT22;9760;50.944;5.304;2022-09-27T06:37:29;9.20;99.90
19252;DHT22;9760;50.944;5.304;2022-09-27T06:39:54;9.20;99.90
19252;DHT22;9760;50.944;5.304;2022-09-27T06:42:20;9.30;99.90
19252;DHT22;9760;50.944;5.304;2022-09-27T06:44:46;9.30;99.90
19252;DHT22;9760;50.944;5.304;2022-09-27T06:47:15;9.30;99.90
19252;DHT22;9760;50.944;5.304;2022-09-27T06:49:41;9.30;99.90
19252;DHT22;9760;50.944;5.304;2022-09-27T06:52:06;9.30;99.90
19252;DHT22;9760;50.944;5.304;2022-09-27T06:54:32;9.30;99.90
19252;DHT22;9760;50.944;5.304;2022-09-27T06:56:57;9.30;99.90
19252;DHT22;9760;50.944;5.304;2022-09-27T06:59:23;9.30;99.90
19252;DHT22;9760;50.944;5.304;2022-09-27T07:02:07;9.30;99.90
19252;DHT22;9760;50.944;5.304;2022-09-27T07:04:33;9.40;99.90
19252;DHT22;9760;50.944;5.304;2022-09-27T07:06:59;9.50;99.90
19252;DHT22;9760;50.944;5.304;2022-09-27T07:09:24;9.60;99.90
19252;DHT22;9760;50.944;5.304;2022-09-27T07:11:50;9.60;99.90
19252;DHT22;9760;50.944;5.304;2022-09-27T07:14:18;9.60;99.90
19252;DHT22;9760;50.944;5.304;2022-09-27T07:16:44;9.60;99.90
19252;DHT22;9760;50.944;5.304;2022-09-27T07:19:10;9.60;99.90
19252;DHT22;9760;50.944;5.304;2022-09-27T07:21:37;9.60;99.90
19252;DHT22;9760;50.944;5.304;2022-09-27T07:24:03;9.70;99.90
19252;DHT22;9760;50.944;5.304;2022-09-27T07:26:30;9.80;99.90
19252;DHT22;9760;50.944;5.304;2022-09-27T07:28:56;9.90;99.90
19252;DHT22;9760;50.944;5.304;2022-09-27T07:31:21;9.90;99.90
19252;DHT22;9760;50.944;5.304;2022-09-27T07:33:48;9.90;99.90
19252;DHT22;9760;50.944;5.304;2022-09-27T07:36:14;9.80;99.90
19252;DHT22;9760;50.944;5.304;2022-09-27T07:38:40;9.80;99.90
19252;DHT22;9760;50.944;5.304;2022-09-27T07:41:08;9.90;99.90
19252;DHT22;9760;50.944;5.304;2022-09-27T07:43:34;9.90;99.90
19252;DHT22;9760;50.944;5.304;2022-09-27T07:45:59;9.90;99.90
19252;DHT22;9760;50.944;5.304;2022-09-27T07:48:25;10.00;99.90
19252;DHT22;9760;50.944;5.304;2022-09-27T07:50:52;10.00;99.90
19252;DHT22;9760;50.944;5.304;2022-09-27T07:53:18;10.00;99.90
19252;DHT22;9760;50.944;5.304;2022-09-27T07:55:49;10.10;99.90
19252;DHT22;9760;50.944;5.304;2022-09-27T07:58:16;10.10;99.90
19252;DHT22;9760;50.944;5.304;2022-09-27T08:00:41;10.20;99.90
19252;DHT22;9760;50.944;5.304;2022-09-27T08:03:13;10.20;99.90
19252;DHT22;9760;50.944;5.304;2022-09-27T08:05:44;10.30;99.90
19252;DHT22;9760;50.944;5.304;2022-09-27T08:08:10;10.20;99.90
19252;DHT22;9760;50.944;5.304;2022-09-27T08:10:35;10.20;99.90
19252;DHT22;9760;50.944;5.304;2022-09-27T08:13:03;10.10;99.90
19252;DHT22;9760;50.944;5.304;2022-09-27T08:15:33;10.00;99.90
19252;DHT22;9760;50.944;5.304;2022-09-27T08:18:01;10.10;99.90
19252;DHT22;9760;50.944;5.304;2022-09-27T08:20:27;10.10;99.90
19252;DHT22;9760;50.944;5.304;2022-09-27T08:22:52;10.10;99.90
19252;DHT22;9760;50.944;5.304;2022-09-27T08:25:18;10.20;99.90
19252;DHT22;9760;50.944;5.304;2022-09-27T08:27:54;10.30;99.90
19252;DHT22;9760;50.944;5.304;2022-09-27T08:30:20;10.40;99.90
19252;DHT22;9760;50.944;5.304;2022-09-27T08:32:46;10.50;99.90
19252;DHT22;9760;50.944;5.304;2022-09-27T08:35:12;10.50;99.90
19252;DHT22;9760;50.944;5.304;2022-09-27T08:37:40;10.60;99.90
19252;DHT22;9760;50.944;5.304;2022-09-27T08:40:06;10.60;99.90
19252;DHT22;9760;50.944;5.304;2022-09-27T08:42:46;10.60;99.90
19252;DHT22;9760;50.944;5.304;2022-09-27T08:45:23;10.60;99.90
19252;DHT22;9760;50.944;5.304;2022-09-27T08:47:56;10.60;99.90
19252;DHT22;9760;50.944;5.304;2022-09-27T08:50:37;10.80;99.90
19252;DHT22;9760;50.944;5.304;2022-09-27T08:55:56;10.80;99.90
19252;DHT22;9760;50.944;5.304;2022-09-27T09:01:21;10.90;99.90
19252;DHT22;9760;50.944;5.304;2022-09-27T09:03:56;10.90;99.90
19252;DHT22;9760;50.944;5.304;2022-09-27T09:06:34;10.70;99.90
19252;DHT22;9760;50.944;5.304;2022-09-27T09:11:59;10.90;99.90
19252;DHT22;9760;50.944;5.304;2022-09-27T09:19:54;11.10;99.90
19252;DHT22;9760;50.944;5.304;2022-09-27T09:24:59;10.90;99.90
19252;DHT22;9760;50.944;5.304;2022-09-27T09:30:24;10.90;99.90
19252;DHT22;9760;50.944;5.304;2022-09-27T09:35:25;11.00;99.90
19252;DHT22;9760;50.944;5.304;2022-09-27T09:37:57;11.10;99.90
19252;DHT22;9760;50.944;5.304;2022-09-27T09:40:40;11.10;99.90
19252;DHT22;9760;50.944;5.304;2022-09-27T09:43:19;11.10;99.90
19252;DHT22;9760;50.944;5.304;2022-09-27T09:45:53;11.20;99.90
19252;DHT22;9760;50.944;5.304;2022-09-27T09:48:44;11.20;99.90
19252;DHT22;9760;50.944;5.304;2022-09-27T09:51:19;11.40;99.90
19252;DHT22;9760;50.944;5.304;2022-09-27T09:56:33;11.50;99.90
19252;DHT22;9760;50.944;5.304;2022-09-27T09:59:03;11.40;99.90
19252;DHT22;9760;50.944;5.304;2022-09-27T10:01:44;11.30;99.90
19252;DHT22;9760;50.944;5.304;2022-09-27T10:04:17;11.10;99.90
19252;DHT22;9760;50.944;5.304;2022-09-27T10:06:44;11.10;99.90
19252;DHT22;9760;50.944;5.304;2022-09-27T10:09:17;11.00;99.90
19252;DHT22;9760;50.944;5.304;2022-09-27T10:11:44;10.90;99.90
19252;DHT22;9760;50.944;5.304;2022-09-27T10:14:13;10.70;99.90
19252;DHT22;9760;50.944;5.304;2022-09-27T10:16:40;10.70;99.90
19252;DHT22;9760;50.944;5.304;2022-09-27T10:19:08;10.60;99.90
19252;DHT22;9760;50.944;5.304;2022-09-27T10:21:39;10.50;99.90
19252;DHT22;9760;50.944;5.304;2022-09-27T10:24:13;10.60;99.90
19252;DHT22;9760;50.944;5.304;2022-09-27T10:26:41;10.60;99.90
19252;DHT22;9760;50.944;5.304;2022-09-27T10:29:24;10.60;99.90
19252;DHT22;9760;50.944;5.304;2022-09-27T10:31:53;10.70;99.90
19252;DHT22;9760;50.944;5.304;2022-09-27T10:34:24;10.70;99.90
19252;DHT22;9760;50.944;5.304;2022-09-27T10:39:37;10.50;99.90
19252;DHT22;9760;50.944;5.304;2022-09-27T10:44:44;10.30;99.90
19252;DHT22;9760;50.944;5.304;2022-09-27T10:47:13;10.40;99.90
19252;DHT22;9760;50.944;5.304;2022-09-27T10:49:44;10.30;99.90
19252;DHT22;9760;50.944;5.304;2022-09-27T10:52:21;10.40;99.90
19252;DHT22;9760;50.944;5.304;2022-09-27T10:55:15;10.50;99.90
19252;DHT22;9760;50.944;5.304;2022-09-27T10:57:49;10.50;99.90
19252;DHT22;9760;50.944;5.304;2022-09-27T11:00:23;10.40;99.90
19252;DHT22;9760;50.944;5.304;2022-09-27T11:02:54;10.40;99.90
19252;DHT22;9760;50.944;5.304;2022-09-27T11:07:54;10.50;99.90
19252;DHT22;9760;50.944;5.304;2022-09-27T11:10:27;10.50;99.90
19252;DHT22;9760;50.944;5.304;2022-09-27T11:24:01;10.20;99.90
19252;DHT22;9760;50.944;5.304;2022-09-27T11:37:58;10.70;99.90
19252;DHT22;9760;50.944;5.304;2022-09-27T11:46:32;11.50;99.90
19252;DHT22;9760;50.944;5.304;2022-09-27T11:49:09;11.70;99.90
19252;DHT22;9760;50.944;5.304;2022-09-27T11:59:54;12.00;99.90
19252;DHT22;9760;50.944;5.304;2022-09-27T12:05:22;11.90;99.90
19252;DHT22;9760;50.944;5.304;2022-09-27T12:10:39;12.00;99.90
19252;DHT22;9760;50.944;5.304;2022-09-27T12:13:10;12.30;99.90
19252;DHT22;9760;50.944;5.304;2022-09-27T12:15:41;12.40;99.90
19252;DHT22;9760;50.944;5.304;2022-09-27T12:18:29;12.60;99.90
19252;DHT22;9760;50.944;5.304;2022-09-27T12:21:00;12.50;99.90
19252;DHT22;9760;50.944;5.304;2022-09-27T12:23:46;12.40;99.90
19252;DHT22;9760;50.944;5.304;2022-09-27T12:26:17;12.30;99.90
19252;DHT22;9760;50.944;5.304;2022-09-27T12:29:10;12.10;99.90
19252;DHT22;9760;50.944;5.304;2022-09-27T12:36:50;11.60;99.90
19252;DHT22;9760;50.944;5.304;2022-09-27T12:42:10;9.60;99.90
19252;DHT22;9760;50.944;5.304;2022-09-27T12:44:40;7.60;99.90
19252;DHT22;9760;50.944;5.304;2022-09-27T12:52:37;7.80;99.90
19252;DHT22;9760;50.944;5.304;2022-09-27T13:03:28;8.40;99.90
19252;DHT22;9760;50.944;5.304;2022-09-27T13:06:53;8.60;99.90
19252;DHT22;9760;50.944;5.304;2022-09-27T13:14:34;9.50;99.90
19252;DHT22;9760;50.944;5.304;2022-09-27T13:17:03;9.80;99.90
19252;DHT22;9760;50.944;5.304;2022-09-27T13:19:39;10.00;99.90
19252;DHT22;9760;50.944;5.304;2022-09-27T13:22:09;10.10;99.90
19252;DHT22;9760;50.944;5.304;2022-09-27T13:35:35;10.70;99.90
19252;DHT22;9760;50.944;5.304;2022-09-27T13:38:02;10.80;99.90
19252;DHT22;9760;50.944;5.304;2022-09-27T13:40:32;10.90;99.90
19252;DHT22;9760;50.944;5.304;2022-09-27T13:45:57;11.30;99.90
19252;DHT22;9760;50.944;5.304;2022-09-27T13:53:50;11.80;99.90
19252;DHT22;9760;50.944;5.304;2022-09-27T13:59:42;12.10;99.90
19252;DHT22;9760;50.944;5.304;2022-09-27T14:02:22;12.00;99.90
19252;DHT22;9760;50.944;5.304;2022-09-27T14:04:50;12.20;99.90
19252;DHT22;9760;50.944;5.304;2022-09-27T14:07:20;12.40;99.90
19252;DHT22;9760;50.944;5.304;2022-09-27T14:09:51;12.40;99.90
19252;DHT22;9760;50.944;5.304;2022-09-27T14:12:20;12.40;99.90
19252;DHT22;9760;50.944;5.304;2022-09-27T14:14:47;12.40;99.90
19252;DHT22;9760;50.944;5.304;2022-09-27T14:17:14;12.30;99.90
19252;DHT22;9760;50.944;5.304;2022-09-27T14:19:41;12.10;99.90
19252;DHT22;9760;50.944;5.304;2022-09-27T14:22:17;12.00;99.90
19252;DHT22;9760;50.944;5.304;2022-09-27T14:24:55;11.90;99.90
19252;DHT22;9760;50.944;5.304;2022-09-27T14:27:28;11.80;99.90
19252;DHT22;9760;50.944;5.304;2022-09-27T14:29:56;11.70;99.90
19252;DHT22;9760;50.944;5.304;2022-09-27T14:32:30;11.60;99.90
19252;DHT22;9760;50.944;5.304;2022-09-27T14:35:22;11.40;99.90
19252;DHT22;9760;50.944;5.304;2022-09-27T14:38:29;11.30;99.90
19252;DHT22;9760;50.944;5.304;2022-09-27T14:41:02;11.30;99.90
19252;DHT22;9760;50.944;5.304;2022-09-27T14:43:29;11.40;99.90
19252;DHT22;9760;50.944;5.304;2022-09-27T14:45:58;11.40;99.90
19252;DHT22;9760;50.944;5.304;2022-09-27T14:48:30;11.40;99.90
19252;DHT22;9760;50.944;5.304;2022-09-27T14:51:01;11.40;99.90
19252;DHT22;9760;50.944;5.304;2022-09-27T14:53:43;11.40;99.90
19252;DHT22;9760;50.944;5.304;2022-09-27T14:56:15;11.50;99.90
19252;DHT22;9760;50.944;5.304;2022-09-27T14:58:43;11.50;99.90
19252;DHT22;9760;50.944;5.304;2022-09-27T15:01:16;11.50;99.90
19252;DHT22;9760;50.944;5.304;2022-09-27T15:03:43;11.50;99.90
19252;DHT22;9760;50.944;5.304;2022-09-27T15:06:10;11.50;99.90
19252;DHT22;9760;50.944;5.304;2022-09-27T15:08:37;11.50;99.90
19252;DHT22;9760;50.944;5.304;2022-09-27T15:11:05;11.60;99.90
19252;DHT22;9760;50.944;5.304;2022-09-27T15:13:32;11.70;99.90
19252;DHT22;9760;50.944;5.304;2022-09-27T15:15:59;11.80;99.90
19252;DHT22;9760;50.944;5.304;2022-09-27T15:18:38;11.80;99.90
19252;DHT22;9760;50.944;5.304;2022-09-27T15:21:09;11.50;99.90
19252;DHT22;9760;50.944;5.304;2022-09-27T15:23:40;11.50;99.90
19252;DHT22;9760;50.944;5.304;2022-09-27T15:26:16;11.40;99.90
19252;DHT22;9760;50.944;5.304;2022-09-27T15:28:44;11.30;99.90
19252;DHT22;9760;50.944;5.304;2022-09-27T15:31:10;11.30;99.90
19252;DHT22;9760;50.944;5.304;2022-09-27T15:33:38;11.40;99.90
19252;DHT22;9760;50.944;5.304;2022-09-27T15:36:06;11.50;99.90
19252;DHT22;9760;50.944;5.304;2022-09-27T15:41:12;11.50;99.90
19252;DHT22;9760;50.944;5.304;2022-09-27T15:43:41;11.50;99.90
19252;DHT22;9760;50.944;5.304;2022-09-27T15:46:25;11.60;99.90
19252;DHT22;9760;50.944;5.304;2022-09-27T15:51:52;11.60;99.90
19252;DHT22;9760;50.944;5.304;2022-09-27T15:54:22;11.60;99.90
19252;DHT22;9760;50.944;5.304;2022-09-27T15:56:50;11.60;99.90
19252;DHT22;9760;50.944;5.304;2022-09-27T15:59:20;11.60;99.90
19252;DHT22;9760;50.944;5.304;2022-09-27T16:01:47;11.70;99.90
19252;DHT22;9760;50.944;5.304;2022-09-27T16:04:12;11.60;99.90
19252;DHT22;9760;50.944;5.304;2022-09-27T16:06:38;11.60;99.90
19252;DHT22;9760;50.944;5.304;2022-09-27T16:09:15;11.60;99.90
19252;DHT22;9760;50.944;5.304;2022-09-27T16:11:48;11.50;99.90
19252;DHT22;9760;50.944;5.304;2022-09-27T16:14:15;11.40;99.90
19252;DHT22;9760;50.944;5.304;2022-09-27T16:16:48;11.20;99.90
19252;DHT22;9760;50.944;5.304;2022-09-27T16:19:14;11.10;99.90
19252;DHT22;9760;50.944;5.304;2022-09-27T16:21:40;11.00;99.90
19252;DHT22;9760;50.944;5.304;2022-09-27T16:24:08;10.90;99.90
19252;DHT22;9760;50.944;5.304;2022-09-27T16:26:34;10.80;99.90
19252;DHT22;9760;50.944;5.304;2022-09-27T16:29:00;11.00;99.90
19252;DHT22;9760;50.944;5.304;2022-09-27T16:31:25;11.90;99.90
19252;DHT22;9760;50.944;5.304;2022-09-27T16:33:51;12.80;99.90
19252;DHT22;9760;50.944;5.304;2022-09-27T16:36:17;11.80;99.90
19252;DHT22;9760;50.944;5.304;2022-09-27T16:38:50;11.40;99.90
19252;DHT22;9760;50.944;5.304;2022-09-27T16:41:17;10.90;99.90
19252;DHT22;9760;50.944;5.304;2022-09-27T16:43:43;10.80;99.90
19252;DHT22;9760;50.944;5.304;2022-09-27T16:46:09;10.70;99.90
19252;DHT22;9760;50.944;5.304;2022-09-27T16:48:36;10.70;99.90
19252;DHT22;9760;50.944;5.304;2022-09-27T16:51:08;10.70;99.90
19252;DHT22;9760;50.944;5.304;2022-09-27T16:53:53;10.60;99.90
19252;DHT22;9760;50.944;5.304;2022-09-27T16:56:18;10.60;99.90
19252;DHT22;9760;50.944;5.304;2022-09-27T16:58:45;10.60;99.90
19252;DHT22;9760;50.944;5.304;2022-09-27T17:01:11;10.50;99.90
19252;DHT22;9760;50.944;5.304;2022-09-27T17:03:37;10.50;99.90
19252;DHT22;9760;50.944;5.304;2022-09-27T17:06:03;10.40;99.90
19252;DHT22;9760;50.944;5.304;2022-09-27T17:08:29;10.40;99.90
19252;DHT22;9760;50.944;5.304;2022-09-27T17:10:54;10.40;99.90
19252;DHT22;9760;50.944;5.304;2022-09-27T17:13:22;10.30;99.90
19252;DHT22;9760;50.944;5.304;2022-09-27T17:15:48;10.30;99.90
19252;DHT22;9760;50.944;5.304;2022-09-27T17:18:13;10.30;99.90
19252;DHT22;9760;50.944;5.304;2022-09-27T17:20:39;10.30;99.90
19252;DHT22;9760;50.944;5.304;2022-09-27T17:23:05;10.20;99.90
19252;DHT22;9760;50.944;5.304;2022-09-27T17:25:31;10.20;99.90
19252;DHT22;9760;50.944;5.304;2022-09-27T17:27:57;10.20;99.90
19252;DHT22;9760;50.944;5.304;2022-09-27T17:30:22;10.20;99.90
19252;DHT22;9760;50.944;5.304;2022-09-27T17:32:48;10.10;99.90
19252;DHT22;9760;50.944;5.304;2022-09-27T17:35:14;10.10;99.90
19252;DHT22;9760;50.944;5.304;2022-09-27T17:37:40;10.20;99.90
19252;DHT22;9760;50.944;5.304;2022-09-27T17:40:06;10.10;99.90
19252;DHT22;9760;50.944;5.304;2022-09-27T17:42:32;10.10;99.90
19252;DHT22;9760;50.944;5.304;2022-09-27T17:44:59;10.10;99.90
19252;DHT22;9760;50.944;5.304;2022-09-27T17:47:25;10.10;99.90
19252;DHT22;9760;50.944;5.304;2022-09-27T17:50:10;10.10;99.90
19252;DHT22;9760;50.944;5.304;2022-09-27T17:52:53;10.10;99.90
19252;DHT22;9760;50.944;5.304;2022-09-27T17:55:19;10.10;99.90
19252;DHT22;9760;50.944;5.304;2022-09-27T17:57:49;10.10;99.90
19252;DHT22;9760;50.944;5.304;2022-09-27T18:00:16;10.10;99.90
19252;DHT22;9760;50.944;5.304;2022-09-27T18:02:42;10.10;99.90
19252;DHT22;9760;50.944;5.304;2022-09-27T18:05:09;10.10;99.90
19252;DHT22;9760;50.944;5.304;2022-09-27T18:07:35;10.10;99.90
19252;DHT22;9760;50.944;5.304;2022-09-27T18:10:02;10.20;99.90
19252;DHT22;9760;50.944;5.304;2022-09-27T18:12:27;10.10;99.90
19252;DHT22;9760;50.944;5.304;2022-09-27T18:14:57;10.20;99.90
19252;DHT22;9760;50.944;5.304;2022-09-27T18:17:23;10.20;99.90
19252;DHT22;9760;50.944;5.304;2022-09-27T18:19:49;10.20;99.90
19252;DHT22;9760;50.944;5.304;2022-09-27T18:22:14;10.10;99.90
19252;DHT22;9760;50.944;5.304;2022-09-27T18:24:40;10.10;99.90
19252;DHT22;9760;50.944;5.304;2022-09-27T18:27:06;10.10;99.90
19252;DHT22;9760;50.944;5.304;2022-09-27T18:29:31;10.00;99.90
19252;DHT22;9760;50.944;5.304;2022-09-27T18:31:57;10.00;99.90
19252;DHT22;9760;50.944;5.304;2022-09-27T18:34:23;10.00;99.90
19252;DHT22;9760;50.944;5.304;2022-09-27T18:36:49;10.10;99.90
19252;DHT22;9760;50.944;5.304;2022-09-27T18:39:16;10.10;99.90
19252;DHT22;9760;50.944;5.304;2022-09-27T18:41:45;10.10;99.90
19252;DHT22;9760;50.944;5.304;2022-09-27T18:44:16;10.10;99.90
19252;DHT22;9760;50.944;5.304;2022-09-27T18:46:42;9.90;99.90